Time;durP1;ratioP1;P1;durP2;ratioP2;P2;SDS_P1;SDS_P2;PMS_P1;PMS_P2;Temp;Humidity;BMP_temperature;BMP_pressure;BME280_temperature;BME280_humidity;BME280_pressure;Samples;Min_cycle;Max_cycle;Signal;HPM_P1;HPM_P2
2022/05/30 00:02:25;;;;;;;9.57;2.72;;;;;;;13.53;100.00;101282.75;5031240;28;20037;-57
2022/05/30 00:04:50;;;;;;;10.57;2.97;;;;;;;13.46;100.00;101277.34;5014302;28;20042;-55
2022/05/30 00:07:16;;;;;;;11.13;2.65;;;;;;;13.30;100.00;101275.84;5031117;28;20098;-55
2022/05/30 00:09:42;;;;;;;11.45;3.33;;;;;;;13.27;100.00;101283.50;5015681;28;20046;-57
2022/05/30 00:12:08;;;;;;;13.30;3.63;;;;;;;13.29;100.00;101279.56;5023653;28;20090;-54
2022/05/30 00:14:34;;;;;;;12.48;3.78;;;;;;;13.30;100.00;101278.53;5013863;28;20038;-57
2022/05/30 00:17:00;;;;;;;13.90;2.97;;;;;;;13.30;100.00;101278.53;5021112;28;20089;-53
2022/05/30 00:19:26;;;;;;;12.65;3.70;;;;;;;13.14;100.00;101281.56;5025881;28;20268;-57
2022/05/30 00:21:56;;;;;;;12.00;3.72;;;;;;;13.22;100.00;101275.19;5027393;28;20042;-56
2022/05/30 00:24:23;;;;;;;12.70;3.47;;;;;;;13.21;100.00;101274.38;5026031;28;20030;-56
2022/05/30 00:26:48;;;;;;;14.95;3.83;;;;;;;13.10;100.00;101277.66;5019176;28;20045;-57
2022/05/30 00:29:14;;;;;;;13.43;4.27;;;;;;;13.02;100.00;101271.44;5014114;28;20042;-56
2022/05/30 00:31:39;;;;;;;12.70;3.10;;;;;;;13.22;100.00;101272.50;5010568;28;20100;-57
2022/05/30 00:34:05;;;;;;;18.58;4.45;;;;;;;13.22;100.00;101270.66;5079410;28;20030;-53
2022/05/30 00:36:31;;;;;;;11.32;3.58;;;;;;;13.08;100.00;101271.66;5011570;28;20124;-56
2022/05/30 00:38:57;;;;;;;14.27;3.93;;;;;;;13.22;100.00;101267.13;5010289;28;20038;-55
2022/05/30 00:41:23;;;;;;;12.53;3.47;;;;;;;13.16;100.00;101260.75;4997686;28;20269;-55
2022/05/30 00:43:48;;;;;;;11.98;3.42;;;;;;;13.21;100.00;101269.00;5004058;28;20038;-53
2022/05/30 00:46:18;;;;;;;10.80;3.53;;;;;;;13.23;100.00;101263.44;5012774;28;20030;-56
2022/05/30 00:48:55;;;;;;;14.93;3.40;;;;;;;13.20;100.00;101256.63;5005526;28;20058;-56
2022/05/30 00:51:29;;;;;;;13.02;3.67;;;;;;;13.37;100.00;101256.22;4995099;28;20062;-54
2022/05/30 00:53:57;;;;;;;15.82;3.63;;;;;;;13.25;100.00;101254.16;5017561;28;20038;-54
2022/05/30 00:56:27;;;;;;;11.57;3.38;;;;;;;13.26;100.00;101258.50;5008402;28;20042;-55
2022/05/30 00:58:53;;;;;;;11.13;3.60;;;;;;;13.28;100.00;101250.25;5002412;28;20042;-52
2022/05/30 01:01:20;;;;;;;18.38;3.75;;;;;;;13.15;100.00;101259.91;5001111;28;20043;-53
2022/05/30 01:06:37;;;;;;;13.55;3.97;;;;;;;13.01;100.00;101259.03;4995179;28;20046;-51
2022/05/30 01:09:09;;;;;;;17.45;4.30;;;;;;;13.15;100.00;101257.22;4995337;28;20110;-54
2022/05/30 01:11:58;;;;;;;15.82;3.85;;;;;;;13.44;100.00;101255.25;5012602;28;20050;-56
2022/05/30 01:14:28;;;;;;;15.02;3.88;;;;;;;13.42;100.00;101261.84;5007901;28;20060;-54
2022/05/30 01:16:55;;;;;;;12.80;3.45;;;;;;;13.51;100.00;101249.88;5004617;28;20057;-54
2022/05/30 01:20:02;;;;;;;14.00;4.28;;;;;;;13.41;100.00;101244.06;4994669;28;20121;-56
2022/05/30 01:22:41;;;;;;;11.25;3.45;;;;;;;13.32;100.00;101257.66;5013353;28;20034;-51
2022/05/30 01:25:14;;;;;;;14.98;3.70;;;;;;;13.37;100.00;101250.84;5010832;28;20038;-53
2022/05/30 01:28:20;;;;;;;13.25;4.45;;;;;;;13.31;100.00;101252.50;5010531;28;20042;-50
2022/05/30 01:30:46;;;;;;;10.70;3.92;;;;;;;13.15;100.00;101246.47;5008168;28;20120;-52
2022/05/30 01:33:11;;;;;;;16.20;4.68;;;;;;;13.13;100.00;101247.69;5016669;28;20109;-54
2022/05/30 01:35:37;;;;;;;18.25;4.10;;;;;;;13.16;100.00;101241.94;5016098;28;20037;-53
2022/05/30 01:38:06;;;;;;;16.92;4.43;;;;;;;13.24;100.00;101240.91;5015036;28;20030;-55
2022/05/30 01:40:33;;;;;;;12.15;4.20;;;;;;;13.29;100.00;101241.16;5012505;28;20029;-58
2022/05/30 01:42:59;;;;;;;16.38;4.57;;;;;;;13.31;100.00;101234.53;5020421;28;20038;-55
2022/05/30 01:45:26;;;;;;;16.77;3.60;;;;;;;13.22;100.00;101233.06;5014926;28;20050;-54
2022/05/30 01:47:54;;;;;;;10.90;4.00;;;;;;;13.19;100.00;101234.28;5031562;28;20034;-54
2022/05/30 01:50:22;;;;;;;13.93;4.10;;;;;;;13.24;100.00;101230.16;5015261;28;20041;-54
2022/05/30 01:52:48;;;;;;;11.32;4.00;;;;;;;13.19;100.00;101234.28;5016168;28;20053;-55
2022/05/30 01:55:22;;;;;;;18.70;4.60;;;;;;;13.26;100.00;101238.84;5003121;28;20148;-51
2022/05/30 01:57:54;;;;;;;14.30;4.07;;;;;;;13.17;100.00;101231.00;5006860;28;20030;-52
2022/05/30 02:00:49;;;;;;;11.20;4.45;;;;;;;13.01;100.00;101234.03;5020324;28;20052;-52
2022/05/30 02:03:15;;;;;;;14.65;4.65;;;;;;;13.00;100.00;101230.53;5015929;28;20034;-53
2022/05/30 02:05:41;;;;;;;15.18;4.45;;;;;;;12.90;100.00;101235.44;5015885;28;20049;-57
2022/05/30 02:08:07;;;;;;;13.20;4.47;;;;;;;12.84;100.00;101228.19;5012911;28;20026;-53
2022/05/30 02:10:33;;;;;;;15.70;4.80;;;;;;;12.72;100.00;101228.78;5009590;28;20039;-54
2022/05/30 02:13:05;;;;;;;15.40;4.47;;;;;;;12.63;100.00;101227.28;5012366;28;20049;-54
2022/05/30 02:18:35;;;;;;;14.80;5.28;;;;;;;12.61;100.00;101240.06;5004551;28;20040;-52
2022/05/30 02:21:01;;;;;;;12.65;4.30;;;;;;;12.55;100.00;101228.28;5013198;28;20041;-54
2022/05/30 02:23:27;;;;;;;21.73;5.30;;;;;;;12.45;100.00;101231.31;5006403;28;20038;-52
2022/05/30 02:25:53;;;;;;;12.18;4.95;;;;;;;12.47;100.00;101236.50;5026033;28;20067;-54
2022/05/30 02:28:18;;;;;;;18.52;5.55;;;;;;;12.35;100.00;101228.19;5011636;28;20030;-52
2022/05/30 02:30:45;;;;;;;19.45;6.00;;;;;;;12.27;100.00;101223.00;5014970;28;20038;-54
2022/05/30 02:38:41;;;;;;;13.40;5.90;;;;;;;12.34;100.00;101229.22;5007547;28;20069;-56
2022/05/30 02:41:27;;;;;;;12.68;5.55;;;;;;;12.30;100.00;101225.28;5026455;28;20053;-53
2022/05/30 02:43:57;;;;;;;12.60;5.68;;;;;;;12.27;100.00;101225.69;5015480;28;20054;-55
2022/05/30 02:46:23;;;;;;;11.48;5.03;;;;;;;12.40;100.00;101217.69;5014611;28;20038;-53
2022/05/30 02:48:49;;;;;;;18.50;6.00;;;;;;;12.38;100.00;101221.59;5002677;28;20045;-55
2022/05/30 02:51:15;;;;;;;14.13;5.22;;;;;;;12.26;100.00;101219.47;5001016;28;20105;-54
2022/05/30 02:53:42;;;;;;;13.40;5.35;;;;;;;12.24;100.00;101215.34;5011509;28;20038;-55
2022/05/30 02:56:27;;;;;;;13.68;6.05;;;;;;;12.23;100.00;101214.50;5019365;28;20087;-53
2022/05/30 02:58:52;;;;;;;19.13;5.33;;;;;;;12.13;100.00;101212.16;5032003;28;20026;-55
2022/05/30 03:01:20;;;;;;;9.63;5.10;;;;;;;12.27;100.00;101210.41;5024371;28;20101;-54
2022/05/30 03:03:45;;;;;;;11.70;4.15;;;;;;;12.30;100.00;101220.72;5017157;28;20413;-52
2022/05/30 03:06:11;;;;;;;11.03;5.10;;;;;;;12.31;100.00;101221.56;5026828;28;20056;-54
2022/05/30 03:08:37;;;;;;;16.10;5.38;;;;;;;12.24;100.00;101220.72;5014373;28;20030;-53
2022/05/30 03:11:03;;;;;;;11.77;4.82;;;;;;;12.34;100.00;101218.47;5031905;28;20045;-53
2022/05/30 03:13:29;;;;;;;11.83;4.67;;;;;;;12.32;100.00;101216.00;5015188;28;20058;-51
2022/05/30 03:15:55;;;;;;;15.25;5.50;;;;;;;12.24;100.00;101220.72;5031536;28;20034;-54
2022/05/30 03:18:20;;;;;;;12.02;4.68;;;;;;;12.33;100.00;101220.31;5010331;28;20069;-55
2022/05/30 03:20:46;;;;;;;8.03;4.40;;;;;;;12.31;100.00;101224.25;5008944;28;20046;-53
2022/05/30 03:23:11;;;;;;;16.53;5.73;;;;;;;12.31;100.00;101221.56;5014857;28;20355;-53
2022/05/30 03:25:49;;;;;;;10.98;4.70;;;;;;;12.32;100.00;101224.03;5024430;28;20037;-55
2022/05/30 03:28:15;;;;;;;20.42;5.57;;;;;;;12.24;100.00;101223.38;5006461;28;20062;-54
2022/05/30 03:30:41;;;;;;;23.98;5.80;;;;;;;12.18;100.00;101219.63;5009664;28;20058;-54
2022/05/30 03:33:09;;;;;;;11.32;4.90;;;;;;;12.16;100.00;101227.06;5008080;28;20068;-56
2022/05/30 03:35:36;;;;;;;10.48;5.10;;;;;;;12.21;100.00;101229.13;5005844;28;20049;-54
2022/05/30 03:38:22;;;;;;;10.60;4.25;;;;;;;12.33;100.00;101232.91;5016554;28;20049;-55
2022/05/30 03:41:07;;;;;;;17.55;5.47;;;;;;;12.30;100.00;101230.63;5023758;28;20057;-55
2022/05/30 03:43:51;;;;;;;11.70;4.75;;;;;;;12.18;100.00;101230.34;5011111;28;20116;-51
2022/05/30 03:46:17;;;;;;;9.40;4.32;;;;;;;12.09;100.00;101223.47;5010537;28;20038;-51
2022/05/30 03:48:43;;;;;;;11.88;5.53;;;;;;;12.00;100.00;101228.97;5013998;28;20063;-52
2022/05/30 03:51:12;;;;;;;;;;;;;;;11.90;100.00;101223.13;5006685;28;20063;-53
2022/05/30 03:53:39;;;;;;;12.05;4.00;;;;;;;11.77;100.00;101227.34;5009790;28;19921;-56
2022/05/30 03:56:05;;;;;;;14.38;4.22;;;;;;;11.84;100.00;101226.56;5024851;28;20068;-53
2022/05/30 03:58:31;;;;;;;15.30;4.97;;;;;;;11.96;100.00;101224.19;5008474;28;20087;-55
2022/05/30 04:00:57;;;;;;;11.52;3.67;;;;;;;11.96;100.00;101222.34;5004519;28;20045;-55
2022/05/30 04:03:23;;;;;;;10.95;4.03;;;;;;;11.91;100.00;101228.28;4994943;28;20042;-54
2022/05/30 04:05:49;;;;;;;9.90;4.60;;;;;;;11.90;100.00;101226.63;5010401;28;20069;-54
2022/05/30 04:08:15;;;;;;;13.63;4.30;;;;;;;12.18;100.00;101228.50;5039247;28;20022;-54
2022/05/30 04:11:06;;;;;;;11.10;4.13;;;;;;;12.17;100.00;101226.03;5022045;28;20064;-50
2022/05/30 04:13:50;;;;;;;12.45;4.03;;;;;;;11.80;100.00;101222.63;5027266;28;20049;-54
2022/05/30 04:16:35;;;;;;;13.07;5.43;;;;;;;12.17;100.00;101226.84;5013880;28;20042;-55
2022/05/30 04:19:05;;;;;;;17.33;5.97;;;;;;;12.13;100.00;101225.56;5000382;28;20084;-52
2022/05/30 04:21:32;;;;;;;15.52;4.30;;;;;;;12.23;100.00;101229.78;5015039;28;20048;-56
2022/05/30 04:23:58;;;;;;;11.48;3.97;;;;;;;12.25;100.00;101228.53;5015734;28;20527;-53
2022/05/30 04:26:25;;;;;;;13.73;3.92;;;;;;;12.26;100.00;101229.38;5012021;28;20107;-52
2022/05/30 04:28:52;;;;;;;16.10;4.18;;;;;;;12.22;100.00;101220.91;4997989;28;20064;-51
2022/05/30 04:31:40;;;;;;;9.52;4.43;;;;;;;12.34;100.00;101226.53;5030883;28;20083;-55
2022/05/30 04:34:08;;;;;;;11.43;4.55;;;;;;;12.30;100.00;101226.09;5015976;28;20069;-53
2022/05/30 04:36:34;;;;;;;14.43;4.57;;;;;;;12.29;100.00;101232.47;5011396;28;20033;-53
2022/05/30 04:38:59;;;;;;;12.57;4.30;;;;;;;12.32;100.00;101231.25;5015833;28;20042;-55
2022/05/30 04:41:44;;;;;;;14.82;4.70;;;;;;;12.31;100.00;101230.41;5019376;28;20053;-55
2022/05/30 04:44:28;;;;;;;13.80;5.00;;;;;;;12.25;100.00;101225.03;5033483;28;20044;-55
2022/05/30 04:47:03;;;;;;;14.80;4.68;;;;;;;12.28;100.00;101233.50;5034159;28;20046;-51
2022/05/30 04:49:29;;;;;;;13.82;4.55;;;;;;;12.29;100.00;101234.34;5007589;28;20035;-51
2022/05/30 04:51:54;;;;;;;15.07;5.38;;;;;;;12.27;100.00;101239.09;5016406;28;20095;-54
2022/05/30 04:54:20;;;;;;;18.73;5.33;;;;;;;12.35;100.00;101233.56;5012705;28;20084;-53
2022/05/30 04:57:08;;;;;;;15.70;5.28;;;;;;;12.40;100.00;101239.16;5012395;28;20034;-54
2022/05/30 04:59:42;;;;;;;13.70;5.07;;;;;;;12.45;100.00;101234.00;5008326;28;20125;-54
2022/05/30 05:02:12;;;;;;;15.43;4.78;;;;;;;12.49;100.00;101237.13;5023854;28;20034;-53
2022/05/30 05:04:39;;;;;;;11.60;4.90;;;;;;;12.43;100.00;101229.88;5001556;28;20066;-53
2022/05/30 05:07:05;;;;;;;11.70;4.78;;;;;;;12.38;100.00;101227.78;5010057;28;20034;-54
2022/05/30 05:09:50;;;;;;;15.43;5.20;;;;;;;12.48;100.00;101239.00;5006239;28;20052;-55
2022/05/30 05:12:35;;;;;;;10.20;4.55;;;;;;;12.61;100.00;101242.75;5020846;28;20071;-55
2022/05/30 05:15:21;;;;;;;16.45;4.95;;;;;;;12.69;100.00;101239.94;5027487;28;20053;-55
2022/05/30 05:18:05;;;;;;;14.38;4.25;;;;;;;12.83;100.00;101239.97;5033374;28;20041;-54
2022/05/30 05:20:41;;;;;;;15.95;4.47;;;;;;;13.00;100.00;101235.91;5016779;28;20030;-53
2022/05/30 05:23:07;;;;;;;12.48;4.25;;;;;;;12.98;100.00;101242.50;5016976;28;20056;-53
2022/05/30 05:25:53;;;;;;;12.88;3.88;;;;;;;12.89;100.00;101239.16;5012614;28;20022;-55
2022/05/30 05:28:31;;;;;;;12.63;3.80;;;;;;;13.07;100.00;101240.47;5016621;28;20046;-55
2022/05/30 05:30:57;;;;;;;8.48;3.83;;;;;;;13.11;100.00;101244.38;5010670;28;20054;-53
2022/05/30 05:33:23;;;;;;;11.27;3.53;;;;;;;13.34;100.00;101242.16;5010523;28;20053;-51
2022/05/30 05:35:48;;;;;;;13.83;4.10;;;;;;;13.54;100.00;101245.97;5015284;28;20095;-52
2022/05/30 05:38:15;;;;;;;9.75;3.67;;;;;;;13.33;100.00;101243.19;5011905;28;20140;-53
2022/05/30 05:41:00;;;;;;;6.88;3.00;;;;;;;13.21;100.00;101247.53;5016677;28;20045;-52
2022/05/30 05:43:35;;;;;;;10.48;3.85;;;;;;;13.15;100.00;101249.16;5013137;28;20034;-52
2022/05/30 05:46:01;;;;;;;10.13;4.20;;;;;;;13.36;100.00;101254.56;5024732;28;20045;-54
2022/05/30 05:48:27;;;;;;;12.13;2.78;;;;;;;13.33;100.00;101247.75;5015121;28;20279;-56
2022/05/30 05:50:52;;;;;;;8.23;2.80;;;;;;;13.46;100.00;101247.00;5015570;28;20049;-56
2022/05/30 05:53:18;;;;;;;10.63;3.30;;;;;;;13.27;100.00;101248.59;5033398;28;20041;-51
2022/05/30 05:55:45;;;;;;;11.15;2.70;;;;;;;13.53;100.00;101250.50;5008949;28;20041;-53
2022/05/30 05:58:11;;;;;;;11.55;2.50;;;;;;;13.65;100.00;101255.28;5028857;28;20097;-53
2022/05/30 06:00:38;;;;;;;13.07;3.13;;;;;;;13.57;100.00;101254.44;5011413;28;20053;-55
2022/05/30 06:03:05;;;;;;;;;;;;;;;13.71;100.00;101259.81;5015173;28;20042;-55
2022/05/30 06:05:54;;;;;;;;;;;;;;;13.73;100.00;101268.50;5037841;28;19943;-56
2022/05/30 06:08:47;;;;;;;11.82;2.20;;;;;;;13.78;100.00;101274.09;5013041;28;19985;-55
2022/05/30 06:11:21;;;;;;;8.23;1.77;;;;;;;14.03;100.00;101270.78;5027131;28;20037;-53
2022/05/30 06:13:52;;;;;;;8.35;2.45;;;;;;;13.85;100.00;101276.78;5027676;28;20026;-57
2022/05/30 06:16:27;;;;;;;4.35;1.40;;;;;;;13.95;100.00;101273.69;5012492;28;20060;-50
2022/05/30 06:18:56;;;;;;;11.88;1.63;;;;;;;14.36;100.00;101279.84;5032842;28;20040;-55
2022/05/30 06:21:24;;;;;;;11.82;2.25;;;;;;;14.28;100.00;101278.19;5011117;28;20038;-54
2022/05/30 06:23:52;;;;;;;11.17;2.40;;;;;;;14.52;100.00;101279.41;5012506;28;20056;-55
2022/05/30 06:26:36;;;;;;;4.22;1.67;;;;;;;14.26;100.00;101280.25;5028917;28;20262;-55
2022/05/30 06:29:13;;;;;;;9.13;2.10;;;;;;;14.34;100.00;101293.53;5013120;28;20064;-54
2022/05/30 06:31:41;;;;;;;9.65;2.20;;;;;;;14.33;100.00;101284.59;5011012;28;20283;-53
2022/05/30 06:34:07;;;;;;;9.65;1.90;;;;;;;13.98;100.00;101284.03;5012095;28;20035;-56
2022/05/30 06:36:42;;;;;;;7.80;2.07;;;;;;;14.18;100.00;101290.22;5014829;28;20026;-56
2022/05/30 06:39:10;;;;;;;14.23;1.77;;;;;;;14.45;100.00;101287.47;5025092;28;20286;-56
2022/05/30 06:41:42;;;;;;;7.70;2.07;;;;;;;14.56;100.00;101288.69;5012951;28;20284;-55
2022/05/30 06:44:09;;;;;;;8.87;1.73;;;;;;;14.36;100.00;101285.22;5009032;28;20324;-55
2022/05/30 06:47:07;;;;;;;8.17;1.70;;;;;;;14.47;100.00;101290.78;5028106;28;20282;-56
2022/05/30 06:49:52;;;;;;;5.40;1.70;;;;;;;14.81;100.00;101288.03;5029923;28;20297;-55
2022/05/30 06:52:23;;;;;;;10.73;1.90;;;;;;;14.63;100.00;101292.19;5004217;28;20263;-55
2022/05/30 06:54:48;;;;;;;10.00;2.20;;;;;;;14.43;100.00;101292.25;5014589;28;20286;-53
2022/05/30 06:59:59;;;;;;;7.47;1.47;;;;;;;14.84;100.00;101294.88;5009208;28;20029;-56
2022/05/30 07:02:26;;;;;;;12.07;4.00;;;;;;;15.00;100.00;101294.41;5014400;28;20268;-52
2022/05/30 07:05:10;;;;;;;25.10;7.87;;;;;;;14.70;100.00;101294.06;5022402;28;20779;-56
2022/05/30 07:07:58;;;;;;;37.90;16.83;;;;;;;14.95;100.00;101299.56;5029134;28;20752;-55
2022/05/30 07:10:45;;;;;;;8.87;1.63;;;;;;;15.28;100.00;101290.53;5024111;28;20272;-56
2022/05/30 07:13:15;;;;;;;10.80;2.10;;;;;;;15.31;100.00;101291.94;5011144;28;20271;-55
2022/05/30 07:15:42;;;;;;;3.45;1.55;;;;;;;15.37;100.00;101299.19;5024412;28;20259;-56
2022/05/30 07:18:13;;;;;;;3.13;1.37;;;;;;;15.66;100.00;101301.47;5011207;28;20051;-55
2022/05/30 07:20:39;;;;;;;10.47;3.50;;;;;;;15.57;100.00;101295.50;5027382;28;20326;-57
2022/05/30 07:23:24;;;;;;;12.97;1.70;;;;;;;15.71;100.00;101297.09;5029872;28;20279;-53
2022/05/30 07:26:15;;;;;;;6.03;1.50;;;;;;;15.80;100.00;101300.34;5028811;28;20278;-56
2022/05/30 07:28:59;;;;;;;6.57;1.20;;;;;;;15.60;100.00;101285.13;5018568;28;20275;-54
2022/05/30 07:31:43;;;;;;;5.70;1.20;;;;;;;15.66;100.00;101282.59;5025261;28;20370;-55
2022/05/30 07:34:27;;;;;;;12.17;4.63;;;;;;;15.61;100.00;101292.16;5038222;28;20264;-53
2022/05/30 07:37:11;;;;;;;7.17;2.50;;;;;;;15.99;100.00;101293.16;5026485;28;20293;-53
2022/05/30 07:39:55;;;;;;;11.47;2.87;;;;;;;16.12;100.00;101297.59;5025876;28;20270;-58
2022/05/30 07:42:33;;;;;;;4.43;0.90;;;;;;;16.38;100.00;101293.03;5013602;28;20270;-56
2022/05/30 07:45:18;;;;;;;10.80;2.07;;;;;;;16.68;100.00;101295.00;5014087;28;20268;-56
2022/05/30 07:48:16;;;;;;;7.15;1.75;;;;;;;16.61;100.00;101300.44;5010320;28;20314;-56
2022/05/30 07:51:13;;;;;;;4.83;1.30;;;;;;;16.93;100.00;101299.47;5010819;28;20120;-55
2022/05/30 07:53:46;;;;;;;10.33;2.03;;;;;;;17.33;100.00;101301.69;5013187;28;20286;-57
2022/05/30 07:56:21;;;;;;;6.10;1.63;;;;;;;17.24;100.00;101303.03;5027447;28;20264;-56
2022/05/30 07:58:48;;;;;;;6.40;1.57;;;;;;;17.56;100.00;101299.28;5012885;28;20271;-56
2022/05/30 08:01:18;;;;;;;3.97;1.37;;;;;;;17.83;100.00;101310.50;5010499;28;20271;-58
2022/05/30 08:03:47;;;;;;;6.70;1.63;;;;;;;17.71;100.00;101301.53;5008629;28;20377;-56
2022/05/30 08:06:35;;;;;;;7.33;1.37;;;;;;;17.74;100.00;101299.22;5042852;28;20443;-54
2022/05/30 08:09:20;;;;;;;4.50;1.70;;;;;;;17.99;100.00;101297.34;5022493;28;20258;-54
2022/05/30 08:12:01;;;;;;;23.57;8.27;;;;;;;18.25;100.00;101289.88;5010581;28;20297;-56
2022/05/30 08:14:46;;;;;;;3.97;1.13;;;;;;;18.46;100.00;101293.84;5024904;28;20259;-54
2022/05/30 08:17:12;;;;;;;4.05;1.65;;;;;;;18.46;100.00;101291.13;5012763;28;20275;-57
2022/05/30 08:19:40;;;;;;;5.40;1.05;;;;;;;18.94;100.00;101294.59;5010655;28;20073;-57
2022/05/30 08:22:10;;;;;;;10.67;5.07;;;;;;;18.95;100.00;101292.69;5024929;28;20038;-59
2022/05/30 08:24:39;;;;;;;6.17;1.90;;;;;;;18.91;100.00;101293.16;5011999;28;20042;-56
2022/05/30 08:27:10;;;;;;;12.87;3.20;;;;;;;19.14;100.00;101298.75;5001543;28;20094;-58
2022/05/30 08:29:42;;;;;;;3.73;1.20;;;;;;;18.96;99.86;101299.75;4998108;28;20102;-56
2022/05/30 08:32:09;;;;;;;7.47;2.10;;;;;;;19.10;100.00;101300.31;4990242;28;20066;-54
2022/05/30 08:34:53;;;;;;;6.93;2.20;;;;;;;19.08;96.21;101294.31;5029842;28;20076;-55
2022/05/30 08:37:19;;;;;;;4.20;1.35;;;;;;;19.04;97.82;101307.53;5008590;28;20097;-57
2022/05/30 08:42:31;;;;;;;10.77;1.67;;;;;;;18.46;100.00;101308.22;5009375;28;20038;-55
2022/05/30 08:45:25;;;;;;;14.87;6.10;;;;;;;18.38;100.00;101310.47;5017284;28;20113;-56
2022/05/30 08:48:14;;;;;;;8.18;2.38;;;;;;;17.79;100.00;101306.63;5021526;28;20049;-57
2022/05/30 08:50:51;;;;;;;8.70;2.30;;;;;;;18.11;100.00;101298.22;5008772;28;20045;-58
2022/05/30 08:53:46;;;;;;;15.23;4.17;;;;;;;17.79;100.00;101306.63;5002463;28;20030;-57
2022/05/30 08:56:34;;;;;;;8.93;3.33;;;;;;;17.89;100.00;101315.00;4996967;28;20034;-54
2022/05/30 08:59:34;;;;;;;18.37;9.13;;;;;;;17.63;100.00;101311.66;5024116;28;20034;-57
2022/05/30 09:02:17;;;;;;;7.53;3.40;;;;;;;17.60;100.00;101309.41;5012341;28;20053;-51
2022/05/30 09:04:58;;;;;;;10.63;3.20;;;;;;;18.15;100.00;101314.81;5025637;28;20042;-57
2022/05/30 09:07:31;;;;;;;10.43;3.37;;;;;;;18.11;100.00;101310.94;5007035;28;20362;-54
2022/05/30 09:10:05;;;;;;;3.73;1.60;;;;;;;17.86;100.00;101312.75;5009364;28;20280;-57
2022/05/30 09:12:38;;;;;;;8.13;2.17;;;;;;;18.54;100.00;101314.34;5010789;28;20306;-56
2022/05/30 09:15:51;;;;;;;7.03;1.40;;;;;;;18.34;100.00;101312.81;5015985;28;20278;-54
2022/05/30 09:18:25;;;;;;;4.07;0.97;;;;;;;17.63;100.00;101310.81;5006782;28;20288;-56
2022/05/30 09:20:51;;;;;;;5.47;1.20;;;;;;;17.50;100.00;101311.84;5004657;28;20275;-57
2022/05/30 09:23:22;;;;;;;6.53;1.70;;;;;;;18.09;100.00;101313.88;5014713;28;20268;-57
2022/05/30 09:26:00;;;;;;;3.73;1.43;;;;;;;18.17;100.00;101310.81;5015838;28;20287;-56
2022/05/30 09:28:41;;;;;;;5.07;1.10;;;;;;;18.10;100.00;101320.09;5014906;28;20288;-57
2022/05/30 09:31:36;;;;;;;8.37;1.20;;;;;;;18.76;100.00;101307.22;5017318;28;20283;-56
2022/05/30 09:34:31;;;;;;;2.87;1.10;;;;;;;18.32;99.93;101312.22;5026547;28;20042;-58
2022/05/30 09:37:38;;;;;;;7.05;1.15;;;;;;;18.89;95.89;101311.56;5023171;28;20270;-56
2022/05/30 09:40:14;;;;;;;2.57;1.10;;;;;;;19.00;91.62;101323.44;5026579;28;20046;-55
2022/05/30 09:43:24;;;;;;;5.27;1.33;;;;;;;19.13;92.20;101314.22;5011704;28;20072;-55
2022/05/30 09:45:51;;;;;;;4.70;1.50;;;;;;;19.38;91.83;101317.66;5013022;28;20098;-57
2022/05/30 09:48:36;;;;;;;6.23;1.07;;;;;;;19.51;89.91;101319.25;5032875;28;20079;-57
2022/05/30 09:51:09;;;;;;;3.60;1.43;;;;;;;19.71;91.70;101314.16;5015622;28;20034;-56
2022/05/30 09:53:49;;;;;;;4.10;1.08;;;;;;;19.54;88.09;101322.28;5013758;28;20048;-56
2022/05/30 09:56:18;;;;;;;5.50;1.37;;;;;;;19.38;90.05;101323.09;5012191;28;20034;-57
2022/05/30 09:58:48;;;;;;;7.53;2.03;;;;;;;19.03;90.41;101322.97;5013388;28;20052;-57
2022/05/30 10:01:49;;;;;;;9.93;1.40;;;;;;;19.04;88.55;101329.22;5032164;28;20057;-54
2022/05/30 10:04:44;;;;;;;6.57;2.00;;;;;;;19.42;87.24;101329.66;5015380;28;20038;-58
2022/05/30 10:07:16;;;;;;;7.23;1.90;;;;;;;19.47;88.74;101338.69;5024559;28;20062;-56
2022/05/30 10:10:19;;;;;;;6.47;2.93;;;;;;;19.30;92.97;101337.84;5031207;28;20031;-58
2022/05/30 10:12:59;;;;;;;5.03;1.57;;;;;;;19.23;92.00;101338.00;5014640;28;20045;-56
2022/05/30 10:15:59;;;;;;;4.63;1.63;;;;;;;19.68;85.24;101335.56;5011820;28;20113;-57
2022/05/30 10:18:29;;;;;;;7.80;2.50;;;;;;;19.35;90.72;101335.22;5013741;28;20051;-55
2022/05/30 10:21:26;;;;;;;7.37;2.73;;;;;;;19.56;88.67;101341.84;5025628;28;20117;-57
2022/05/30 10:31:25;;;;;;;7.00;2.67;;;;;;;20.75;82.45;101335.53;5016492;28;20044;-58
2022/05/30 10:34:23;;;;;;;8.30;2.80;;;;;;;20.70;81.71;101329.25;5005849;28;20080;-56
2022/05/30 10:36:53;;;;;;;6.13;2.20;;;;;;;21.05;79.63;101339.75;5014609;28;20046;-56
2022/05/30 10:40:08;;;;;;;7.10;2.00;;;;;;;21.27;75.54;101333.47;5007495;28;20114;-57
2022/05/30 10:42:45;;;;;;;4.07;1.30;;;;;;;21.47;69.26;101334.78;5012665;28;20061;-58
2022/05/30 10:45:21;;;;;;;3.03;1.17;;;;;;;22.08;68.99;101330.13;5021545;28;20122;-55
2022/05/30 10:47:52;;;;;;;2.70;1.23;;;;;;;22.31;75.44;101337.09;5012195;28;20037;-57
2022/05/30 10:50:42;;;;;;;3.87;1.00;;;;;;;22.54;70.43;101337.78;5011102;28;20033;-51
2022/05/30 10:53:18;;;;;;;7.37;1.70;;;;;;;22.68;61.74;101344.44;5016520;28;20033;-52
2022/05/30 10:56:34;;;;;;;4.90;1.10;;;;;;;23.07;57.94;101348.66;4960571;28;20130;-55
2022/05/30 10:59:07;;;;;;;8.07;2.77;;;;;;;22.26;62.09;101353.41;4962203;28;20028;-55
2022/05/30 11:01:38;;;;;;;8.27;1.63;;;;;;;22.18;63.52;101344.66;4981844;28;20034;-54
2022/05/30 11:04:15;;;;;;;5.17;1.90;;;;;;;22.34;61.92;101347.47;5013781;28;20034;-53
2022/05/30 11:06:44;;;;;;;5.73;1.90;;;;;;;22.71;59.71;101346.63;5027948;28;20045;-56
2022/05/30 11:09:28;;;;;;;7.53;1.70;;;;;;;22.95;58.11;101351.63;5026079;28;20093;-54
2022/05/30 11:12:18;;;;;;;7.10;2.07;;;;;;;22.90;57.84;101341.50;5008910;28;20057;-55
2022/05/30 11:14:55;;;;;;;5.33;2.00;;;;;;;22.69;59.28;101348.78;5029943;28;20036;-53
2022/05/30 11:17:47;;;;;;;4.80;1.40;;;;;;;22.55;56.19;101345.72;5029022;28;20109;-53
2022/05/30 11:20:40;;;;;;;9.63;1.37;;;;;;;23.47;58.40;101355.34;5013841;28;20041;-55
2022/05/30 11:23:07;;;;;;;6.80;2.60;;;;;;;23.84;59.25;101349.91;5008982;28;20094;-50
2022/05/30 11:25:55;;;;;;;4.20;1.27;;;;;;;24.33;56.24;101346.63;5030481;28;20040;-54
2022/05/30 11:28:39;;;;;;;4.30;1.30;;;;;;;24.26;55.28;101351.56;5029851;28;20040;-54
2022/05/30 11:31:20;;;;;;;5.80;2.43;;;;;;;23.69;51.50;101348.84;5027401;28;20118;-55
2022/05/30 11:34:04;;;;;;;9.43;1.90;;;;;;;24.20;49.12;101350.72;5017381;28;20033;-54
2022/05/30 11:36:57;;;;;;;7.27;1.57;;;;;;;24.52;50.73;101347.97;5015354;28;20064;-55
2022/05/30 11:39:40;;;;;;;5.40;1.37;;;;;;;25.00;49.44;101337.41;5024712;28;20045;-52
2022/05/30 11:42:22;;;;;;;8.13;1.10;;;;;;;25.31;48.59;101341.88;5027861;28;20041;-53
2022/05/30 11:44:51;;;;;;;3.07;1.10;;;;;;;25.16;45.62;101348.28;5025598;28;20045;-51
2022/05/30 11:47:25;;;;;;;6.00;1.77;;;;;;;25.34;45.35;101344.84;5020346;28;20037;-52
2022/05/30 11:49:57;;;;;;;7.17;2.20;;;;;;;24.60;47.52;101345.47;5027969;28;20038;-52
2022/05/30 11:52:52;;;;;;;7.00;1.63;;;;;;;24.01;48.79;101345.03;5010803;28;20048;-53
2022/05/30 11:55:27;;;;;;;9.93;3.17;;;;;;;25.10;50.55;101349.38;5021008;28;20062;-51
2022/05/30 11:58:52;;;;;;;6.87;2.03;;;;;;;25.06;45.26;101351.88;5030537;28;20030;-53
2022/05/30 12:01:21;;;;;;;7.07;1.83;;;;;;;25.22;45.46;101347.13;4951431;29;20047;-53
2022/05/30 12:04:11;;;;;;;6.10;1.33;;;;;;;24.02;49.13;101348.59;4951667;29;20051;-54
2022/05/30 12:07:08;;;;;;;5.67;1.33;;;;;;;24.29;47.17;101344.72;4999931;28;20058;-51
2022/05/30 12:10:09;;;;;;;6.85;1.95;;;;;;;24.97;46.13;101337.13;5009833;28;20099;-51
2022/05/30 12:13:08;;;;;;;5.67;1.40;;;;;;;25.44;46.46;101341.25;5024390;28;20050;-53
2022/05/30 12:15:49;;;;;;;3.93;1.40;;;;;;;25.97;43.51;101341.69;5018674;28;20041;-52
2022/05/30 12:24:18;;;;;;;9.33;3.80;;;;;;;25.37;44.02;101342.66;5020415;28;20040;-52